createdAt,value
2022-08-21T00:00:54.678Z,17.20
2022-08-21T00:03:22.199Z,17.20
2022-08-21T00:05:52.063Z,17.20
2022-08-21T00:08:21.243Z,17.10
2022-08-21T00:10:49.657Z,17.10
2022-08-21T00:13:19.042Z,17.10
2022-08-21T00:15:47.166Z,17.10
2022-08-21T00:18:15.233Z,17.10
2022-08-21T00:20:43.905Z,17.10
2022-08-21T00:23:12.138Z,17.10
2022-08-21T00:25:40.057Z,17.10
2022-08-21T00:28:07.781Z,17.10
2022-08-21T00:30:35.875Z,17.10
2022-08-21T00:33:04.269Z,17.10
2022-08-21T00:35:38.363Z,17.10
2022-08-21T00:38:09.318Z,17.00
2022-08-21T00:40:50.522Z,17.00
2022-08-21T00:43:23.130Z,17.00
2022-08-21T00:45:51.107Z,17.00
2022-08-21T00:48:18.670Z,17.00
2022-08-21T00:50:53.803Z,17.00
2022-08-21T00:53:21.451Z,16.90
2022-08-21T00:55:49.035Z,17.00
2022-08-21T00:58:18.753Z,16.90
2022-08-21T01:00:49.392Z,16.90
2022-08-21T01:03:23.647Z,16.90
2022-08-21T01:05:53.539Z,16.90
2022-08-21T01:08:22.252Z,16.90
2022-08-21T01:10:54.507Z,16.90
2022-08-21T01:13:25.756Z,16.90
2022-08-21T01:15:55.680Z,17.00
2022-08-21T01:18:23.817Z,16.90
2022-08-21T01:21:05.045Z,17.00
2022-08-21T01:23:32.816Z,17.00
2022-08-21T01:26:00.200Z,17.00
2022-08-21T01:28:31.579Z,17.00
2022-08-21T01:30:59.415Z,16.90
2022-08-21T01:33:26.911Z,16.90
2022-08-21T01:35:54.366Z,16.90
2022-08-21T01:38:21.884Z,17.00
2022-08-21T01:40:49.502Z,17.00
2022-08-21T01:43:16.834Z,17.00
2022-08-21T01:45:53.016Z,16.90
2022-08-21T01:48:20.571Z,17.00
2022-08-21T01:50:48.000Z,17.00
2022-08-21T01:53:21.078Z,16.90
2022-08-21T01:55:55.991Z,16.90
2022-08-21T01:58:23.478Z,16.90
2022-08-21T02:00:50.959Z,16.90
2022-08-21T02:03:26.263Z,16.90
2022-08-21T02:06:06.803Z,16.90
2022-08-21T02:08:34.481Z,16.90
2022-08-21T02:11:02.036Z,16.80
2022-08-21T02:13:29.465Z,16.80
2022-08-21T02:15:56.931Z,16.70
2022-08-21T02:18:24.531Z,16.70
2022-08-21T02:20:55.713Z,16.70
2022-08-21T02:23:26.529Z,16.70
2022-08-21T02:26:06.061Z,16.60
2022-08-21T02:28:33.743Z,16.60
2022-08-21T02:31:02.445Z,16.60
2022-08-21T02:33:31.402Z,16.70
2022-08-21T02:36:00.028Z,16.60
2022-08-21T02:38:30.805Z,16.60
2022-08-21T02:40:58.982Z,16.60
2022-08-21T02:43:28.760Z,16.60
2022-08-21T02:45:58.437Z,16.60
2022-08-21T02:48:30.245Z,16.60
2022-08-21T02:51:04.322Z,16.50
2022-08-21T02:53:32.271Z,16.50
2022-08-21T02:56:02.218Z,16.60
2022-08-21T02:58:34.007Z,16.50
2022-08-21T03:01:01.672Z,16.50
2022-08-21T03:03:30.306Z,16.50
2022-08-21T03:05:58.011Z,16.50
2022-08-21T03:08:27.779Z,16.50
2022-08-21T03:10:55.654Z,16.60
2022-08-21T03:13:23.594Z,16.60
2022-08-21T03:15:51.584Z,16.50
2022-08-21T03:18:19.221Z,16.50
2022-08-21T03:20:47.563Z,16.50
2022-08-21T03:23:18.353Z,16.50
2022-08-21T03:25:48.200Z,16.50
2022-08-21T03:28:19.275Z,16.50
2022-08-21T03:30:48.429Z,16.50
2022-08-21T03:33:16.857Z,16.50
2022-08-21T03:35:52.324Z,16.50
2022-08-21T03:38:25.912Z,16.60
2022-08-21T03:40:55.371Z,16.50
2022-08-21T03:43:22.848Z,16.60
2022-08-21T03:45:50.566Z,16.60
2022-08-21T03:48:20.470Z,16.60
2022-08-21T03:50:48.679Z,16.60
2022-08-21T03:53:17.980Z,16.70
2022-08-21T03:55:51.084Z,16.70
2022-08-21T03:58:20.855Z,16.80
2022-08-21T04:00:51.295Z,16.80
2022-08-21T04:03:21.123Z,16.80
2022-08-21T04:05:48.801Z,16.90
2022-08-21T04:08:19.775Z,16.90
2022-08-21T04:10:51.056Z,16.90
2022-08-21T04:13:18.596Z,16.90
2022-08-21T04:15:45.971Z,17.00
2022-08-21T04:18:14.432Z,17.00
2022-08-21T04:20:45.319Z,17.10
2022-08-21T04:23:23.615Z,17.10
2022-08-21T04:25:55.761Z,17.10
2022-08-21T04:28:29.155Z,17.20
2022-08-21T04:30:58.197Z,17.30
2022-08-21T04:33:25.820Z,17.30
2022-08-21T04:35:53.463Z,17.30
2022-08-21T04:38:21.499Z,17.40
2022-08-21T04:40:50.856Z,17.40
2022-08-21T04:43:19.642Z,17.50
2022-08-21T04:45:49.162Z,17.50
2022-08-21T04:48:19.166Z,17.50
2022-08-21T04:50:55.256Z,17.50
2022-08-21T04:53:36.309Z,17.60
2022-08-21T04:56:08.960Z,17.70
2022-08-21T04:58:38.889Z,17.70
2022-08-21T05:01:10.017Z,17.80
2022-08-21T05:03:39.032Z,17.90
2022-08-21T05:06:10.647Z,17.90
2022-08-21T05:08:39.629Z,18.00
2022-08-21T05:11:08.053Z,18.00
2022-08-21T05:13:36.489Z,18.00
2022-08-21T05:16:04.333Z,18.10
2022-08-21T05:18:31.777Z,18.20
2022-08-21T05:20:59.201Z,18.30
2022-08-21T05:23:26.751Z,18.30
2022-08-21T05:25:54.730Z,18.30
2022-08-21T05:28:22.074Z,18.40
2022-08-21T05:30:49.663Z,18.50
2022-08-21T05:33:17.184Z,18.50
2022-08-21T05:35:44.538Z,18.60
2022-08-21T05:38:18.038Z,18.70
2022-08-21T05:40:46.863Z,18.80
2022-08-21T05:43:14.779Z,18.80
2022-08-21T05:45:44.141Z,18.90
2022-08-21T05:48:16.864Z,18.80
2022-08-21T05:50:45.943Z,18.90
2022-08-21T05:53:14.417Z,19.00
2022-08-21T05:55:45.767Z,19.10
2022-08-21T05:58:19.109Z,19.20
2022-08-21T06:00:48.660Z,19.20
2022-08-21T06:03:26.190Z,19.20
2022-08-21T06:05:54.586Z,19.30
2022-08-21T06:08:23.282Z,19.40
2022-08-21T06:10:52.686Z,19.40
2022-08-21T06:13:21.038Z,19.60
2022-08-21T06:15:48.539Z,19.70
2022-08-21T06:18:16.482Z,19.70
2022-08-21T06:20:45.492Z,19.80
2022-08-21T06:23:12.858Z,19.90
2022-08-21T06:25:40.154Z,20.00
2022-08-21T06:28:12.012Z,20.10
2022-08-21T06:30:41.216Z,20.10
2022-08-21T06:33:09.037Z,20.20
2022-08-21T06:35:37.004Z,20.20
2022-08-21T06:38:09.131Z,20.30
2022-08-21T06:40:36.637Z,20.20
2022-08-21T06:43:15.074Z,20.30
2022-08-21T06:45:43.018Z,20.40
2022-08-21T06:48:13.541Z,20.40
2022-08-21T06:50:43.177Z,20.50
2022-08-21T06:53:15.594Z,20.60
2022-08-21T06:55:43.611Z,20.70
2022-08-21T06:58:12.998Z,20.70
2022-08-21T07:00:43.696Z,20.70
2022-08-21T07:03:33.822Z,20.70
2022-08-21T07:06:01.333Z,20.90
2022-08-21T07:08:29.453Z,21.00
2022-08-21T07:11:00.128Z,20.90
2022-08-21T07:13:28.380Z,20.90
2022-08-21T07:15:58.236Z,21.10
2022-08-21T07:18:29.083Z,21.20
2022-08-21T07:20:56.983Z,21.00
2022-08-21T07:23:29.729Z,21.10
2022-08-21T07:25:57.162Z,21.30
2022-08-21T07:28:24.549Z,21.40
2022-08-21T07:30:54.713Z,21.50
2022-08-21T07:33:22.443Z,21.60
2022-08-21T07:35:50.024Z,21.60
2022-08-21T07:38:17.454Z,21.50
2022-08-21T07:40:45.296Z,21.60
2022-08-21T07:43:12.863Z,21.70
2022-08-21T07:45:40.354Z,21.60
2022-08-21T07:48:07.673Z,21.60
2022-08-21T07:50:35.023Z,21.60
2022-08-21T07:53:02.393Z,21.70
2022-08-21T07:55:30.089Z,21.70
2022-08-21T07:57:57.388Z,22.00
2022-08-21T08:00:29.945Z,22.00
2022-08-21T08:02:57.449Z,22.10
2022-08-21T08:05:28.384Z,22.00
2022-08-21T08:07:56.490Z,22.00
2022-08-21T08:10:24.483Z,21.80
2022-08-21T08:12:53.139Z,21.80
2022-08-21T08:15:23.859Z,22.10
2022-08-21T08:17:51.209Z,22.30
2022-08-21T08:20:19.954Z,22.50
2022-08-21T08:22:50.031Z,22.40
2022-08-21T08:25:19.553Z,22.40
2022-08-21T08:27:47.511Z,22.80
2022-08-21T08:30:16.633Z,23.30
2022-08-21T08:32:44.024Z,23.10
2022-08-21T08:35:12.923Z,22.90
2022-08-21T08:37:42.184Z,22.60
2022-08-21T08:40:30.383Z,22.30
2022-08-21T08:42:57.895Z,22.20
2022-08-21T08:45:27.471Z,22.70
2022-08-21T08:48:01.570Z,23.00
2022-08-21T08:51:00.924Z,23.10
2022-08-21T08:53:36.916Z,23.00
2022-08-21T08:56:05.310Z,22.90
2022-08-21T08:58:46.175Z,22.80
2022-08-21T09:01:18.797Z,22.90
2022-08-21T09:03:51.342Z,23.30
2022-08-21T09:06:36.905Z,23.50
2022-08-21T09:09:12.596Z,23.60
2022-08-21T09:12:04.353Z,23.50
2022-08-21T09:14:52.183Z,23.40
2022-08-21T09:17:37.820Z,23.40
2022-08-21T09:20:19.789Z,23.30
2022-08-21T09:23:23.795Z,23.50
2022-08-21T09:25:50.927Z,24.30
2022-08-21T09:28:18.259Z,24.20
2022-08-21T09:30:45.618Z,24.00
2022-08-21T09:33:14.890Z,23.80
2022-08-21T09:35:59.499Z,23.90
2022-08-21T09:38:34.269Z,23.70
2022-08-21T09:41:11.196Z,23.50
2022-08-21T09:43:39.582Z,23.80
2022-08-21T09:46:27.802Z,23.80
2022-08-21T09:49:02.078Z,23.60
2022-08-21T09:51:38.141Z,23.60
2022-08-21T09:54:08.686Z,23.50
2022-08-21T09:56:58.316Z,23.00
2022-08-21T09:59:36.878Z,22.70
2022-08-21T10:02:26.125Z,22.60
2022-08-21T10:04:59.344Z,22.30
2022-08-21T10:07:27.623Z,22.50
2022-08-21T10:10:05.175Z,23.00
2022-08-21T10:12:51.574Z,23.70
2022-08-21T10:15:57.727Z,25.00
2022-08-21T10:18:57.509Z,25.30
2022-08-21T10:21:28.822Z,25.00
2022-08-21T10:24:05.362Z,24.80
2022-08-21T10:26:54.263Z,24.70
2022-08-21T10:29:57.238Z,24.40
2022-08-21T10:32:30.179Z,24.20
2022-08-21T10:35:09.726Z,24.10
2022-08-21T10:37:58.803Z,24.10
2022-08-21T10:40:44.542Z,24.20
2022-08-21T10:43:23.455Z,24.00
2022-08-21T10:46:33.373Z,24.50
2022-08-21T10:49:14.814Z,24.50
2022-08-21T10:52:04.052Z,24.90
2022-08-21T10:54:52.295Z,24.80
2022-08-21T10:57:47.638Z,24.50
2022-08-21T11:00:22.152Z,24.10
2022-08-21T11:03:17.478Z,24.70
2022-08-21T11:05:56.718Z,25.10
2022-08-21T11:08:40.065Z,25.20
2022-08-21T11:11:37.139Z,25.30
2022-08-21T11:14:09.658Z,25.10
2022-08-21T11:16:43.723Z,25.00
2022-08-21T11:19:23.705Z,24.80
2022-08-21T11:22:01.490Z,24.70
2022-08-21T11:24:33.760Z,24.80
2022-08-21T11:27:22.559Z,24.80
2022-08-21T11:29:53.690Z,24.80
2022-08-21T11:32:32.777Z,24.90
2022-08-21T11:35:08.525Z,25.00
2022-08-21T11:37:38.508Z,25.20
2022-08-21T11:40:25.536Z,25.20
2022-08-21T11:43:01.921Z,25.10
2022-08-21T11:45:36.731Z,24.90
2022-08-21T11:48:20.761Z,25.20
2022-08-21T11:50:49.527Z,25.40
2022-08-21T11:53:19.811Z,25.00
2022-08-21T11:56:13.191Z,24.60
2022-08-21T11:58:45.152Z,23.90
2022-08-21T12:01:26.955Z,23.60
2022-08-21T12:04:26.732Z,23.40
2022-08-21T12:06:54.091Z,23.60
2022-08-21T12:09:27.268Z,24.10
2022-08-21T12:12:06.255Z,24.50
2022-08-21T12:14:50.311Z,24.80
2022-08-21T12:17:28.092Z,25.20
2022-08-21T12:20:22.167Z,25.00
2022-08-21T12:23:13.103Z,24.80
2022-08-21T12:26:01.346Z,24.70
2022-08-21T12:28:31.481Z,25.40
2022-08-21T12:31:00.352Z,26.00
2022-08-21T12:33:38.751Z,25.60
2022-08-21T12:36:13.249Z,25.00
2022-08-21T12:38:53.924Z,24.50
2022-08-21T12:41:43.003Z,24.80
2022-08-21T12:44:18.721Z,25.10
2022-08-21T12:47:03.751Z,24.90
2022-08-21T12:50:07.466Z,24.70
2022-08-21T12:52:41.348Z,24.20
2022-08-21T12:55:18.193Z,24.00
2022-08-21T12:57:45.559Z,23.80
2022-08-21T13:00:15.733Z,24.00
2022-08-21T13:02:50.975Z,24.20
2022-08-21T13:05:36.786Z,24.40
2022-08-21T13:08:09.723Z,24.30
2022-08-21T13:10:38.599Z,24.70
2022-08-21T13:13:12.818Z,24.90
2022-08-21T13:15:47.426Z,25.00
2022-08-21T13:18:24.415Z,24.80
2022-08-21T13:20:52.585Z,24.50
2022-08-21T13:23:27.614Z,24.30
2022-08-21T13:25:55.962Z,24.30
2022-08-21T13:28:23.993Z,24.20
2022-08-21T13:30:54.333Z,24.00
2022-08-21T13:33:35.183Z,24.00
2022-08-21T13:36:09.286Z,24.10
2022-08-21T13:38:39.019Z,24.10
2022-08-21T13:41:28.603Z,24.20
2022-08-21T13:44:21.114Z,24.40
2022-08-21T13:46:50.451Z,24.30
2022-08-21T13:49:20.828Z,24.40
2022-08-21T13:51:49.388Z,24.40
2022-08-21T13:54:28.711Z,24.30
2022-08-21T13:56:56.698Z,24.30
2022-08-21T13:59:33.442Z,24.50
2022-08-21T14:02:11.667Z,24.70
2022-08-21T14:04:58.714Z,24.60
2022-08-21T14:07:30.822Z,24.40
2022-08-21T14:10:01.608Z,24.50
2022-08-21T14:12:49.548Z,24.50
2022-08-21T14:15:19.744Z,24.70
2022-08-21T14:17:47.563Z,24.80
2022-08-21T14:20:32.983Z,24.70
2022-08-21T14:23:01.471Z,25.00
2022-08-21T14:25:37.962Z,25.90
2022-08-21T14:28:33.884Z,26.50
2022-08-21T14:31:18.610Z,27.30
2022-08-21T14:33:46.930Z,27.20
2022-08-21T14:36:14.737Z,27.70
2022-08-21T14:38:42.286Z,29.50
2022-08-21T14:41:25.379Z,30.60
2022-08-21T14:43:59.793Z,31.90
2022-08-21T14:46:39.152Z,32.20
2022-08-21T14:49:22.679Z,31.70
2022-08-21T14:51:54.828Z,30.90
2022-08-21T14:54:22.510Z,29.40
2022-08-21T14:57:01.175Z,27.80
2022-08-21T14:59:28.730Z,26.90
2022-08-21T15:01:57.492Z,26.10
2022-08-21T15:04:24.984Z,25.50
2022-08-21T15:06:52.341Z,25.10
2022-08-21T15:09:19.684Z,24.70
2022-08-21T15:11:47.157Z,24.50
2022-08-21T15:14:21.456Z,24.30
2022-08-21T15:16:50.124Z,24.20
2022-08-21T15:19:17.598Z,24.10
2022-08-21T15:21:45.014Z,24.00
2022-08-21T15:24:12.386Z,24.00
2022-08-21T15:26:39.823Z,23.90
2022-08-21T15:29:09.340Z,23.90
2022-08-21T15:31:38.011Z,23.90
2022-08-21T15:34:05.400Z,23.80
2022-08-21T15:36:32.729Z,23.80
2022-08-21T15:39:00.130Z,23.80
2022-08-21T15:41:27.508Z,23.70
2022-08-21T15:43:55.014Z,23.80
2022-08-21T15:46:22.971Z,23.80
2022-08-21T15:48:50.807Z,23.70
2022-08-21T15:51:18.915Z,23.80
2022-08-21T15:53:47.653Z,23.70
2022-08-21T15:56:44.498Z,23.60
2022-08-21T15:59:20.950Z,23.50
2022-08-21T16:01:50.454Z,23.40
2022-08-21T16:04:28.497Z,23.30
2022-08-21T16:07:00.957Z,23.30
2022-08-21T16:09:32.753Z,23.30
2022-08-21T16:12:01.467Z,23.20
2022-08-21T16:14:31.581Z,23.20
2022-08-21T16:16:59.627Z,23.10
2022-08-21T16:19:29.159Z,23.10
2022-08-21T16:21:56.567Z,23.10
2022-08-21T16:24:24.061Z,23.00
2022-08-21T16:26:57.913Z,23.00
2022-08-21T16:29:29.899Z,22.90
2022-08-21T16:31:57.465Z,22.90
2022-08-21T16:34:25.244Z,22.90
2022-08-21T16:36:52.590Z,22.80
2022-08-21T16:39:19.993Z,22.80
2022-08-21T16:41:51.215Z,22.80
2022-08-21T16:44:20.151Z,22.80
2022-08-21T16:46:48.148Z,22.80
2022-08-21T16:49:15.525Z,22.70
2022-08-21T16:51:43.743Z,22.70
2022-08-21T16:54:12.037Z,22.70
2022-08-21T16:56:44.579Z,22.60
2022-08-21T16:59:14.498Z,22.60
2022-08-21T17:01:45.387Z,22.60
2022-08-21T17:04:12.854Z,22.50
2022-08-21T17:06:40.204Z,22.50
2022-08-21T17:09:07.687Z,22.50
2022-08-21T17:11:41.275Z,22.40
2022-08-21T17:14:13.133Z,22.40
2022-08-21T17:16:44.935Z,22.40
2022-08-21T17:19:13.707Z,22.40
2022-08-21T17:21:41.275Z,22.30
2022-08-21T17:24:09.696Z,22.30
2022-08-21T17:26:38.158Z,22.20
2022-08-21T17:29:10.137Z,22.20
2022-08-21T17:31:40.375Z,22.20
2022-08-21T17:34:08.591Z,22.10
2022-08-21T17:36:36.048Z,22.10
2022-08-21T17:39:05.129Z,22.10
2022-08-21T17:41:32.651Z,22.10
2022-08-21T17:44:07.359Z,22.10
2022-08-21T17:46:34.964Z,22.00
2022-08-21T17:49:02.310Z,22.00
2022-08-21T17:51:29.702Z,21.90
2022-08-21T17:53:57.440Z,21.90
2022-08-21T17:56:31.740Z,21.90
2022-08-21T17:58:59.422Z,21.90
2022-08-21T18:01:30.487Z,21.80
2022-08-21T18:03:57.895Z,21.80
2022-08-21T18:06:25.999Z,21.80
2022-08-21T18:08:53.348Z,21.70
2022-08-21T18:11:24.739Z,21.60
2022-08-21T18:13:54.678Z,21.60
2022-08-21T18:16:23.609Z,21.60
2022-08-21T18:18:52.134Z,21.60
2022-08-21T18:21:20.191Z,21.60
2022-08-21T18:23:47.616Z,21.50
2022-08-21T18:26:27.954Z,21.50
2022-08-21T18:28:59.001Z,21.50
2022-08-21T18:31:30.853Z,21.60
2022-08-21T18:33:59.973Z,21.50
2022-08-21T18:36:29.311Z,21.60
2022-08-21T18:39:08.939Z,21.50
2022-08-21T18:41:46.370Z,21.40
2022-08-21T18:44:15.158Z,21.40
2022-08-21T18:46:46.830Z,21.40
2022-08-21T18:49:14.116Z,21.40
2022-08-21T18:51:45.162Z,21.30
2022-08-21T18:54:13.292Z,21.30
2022-08-21T18:56:41.760Z,21.30
2022-08-21T18:59:10.629Z,21.30
2022-08-21T19:01:38.435Z,21.20
2022-08-21T19:04:08.915Z,21.30
2022-08-21T19:06:36.784Z,21.20
2022-08-21T19:09:09.846Z,21.20
2022-08-21T19:11:41.004Z,21.10
2022-08-21T19:14:17.216Z,21.20
2022-08-21T19:16:46.966Z,21.10
2022-08-21T19:19:15.758Z,21.20
2022-08-21T19:21:43.076Z,21.10
2022-08-21T19:24:17.860Z,21.10
2022-08-21T19:26:45.855Z,21.10
2022-08-21T19:29:17.035Z,21.10
2022-08-21T19:31:45.695Z,21.10
2022-08-21T19:34:20.428Z,21.10
2022-08-21T19:36:48.191Z,21.10
2022-08-21T19:39:17.991Z,21.10
2022-08-21T19:41:50.595Z,21.00
2022-08-21T19:44:23.525Z,21.00
2022-08-21T19:46:53.085Z,21.00
2022-08-21T19:49:23.361Z,21.00
2022-08-21T19:51:50.765Z,21.00
2022-08-21T19:54:22.475Z,20.90
2022-08-21T19:56:50.579Z,20.90
2022-08-21T19:59:24.688Z,20.80
2022-08-21T20:01:52.515Z,20.80
2022-08-21T20:04:20.255Z,20.80
2022-08-21T20:06:47.829Z,20.80
2022-08-21T20:09:17.310Z,20.80
2022-08-21T20:11:49.076Z,20.80
2022-08-21T20:14:20.979Z,20.70
2022-08-21T20:16:52.492Z,20.70
2022-08-21T20:19:20.763Z,20.70
2022-08-21T20:21:48.625Z,20.70
2022-08-21T20:24:16.927Z,20.70
2022-08-21T20:26:49.469Z,20.60
2022-08-21T20:29:24.520Z,20.60
2022-08-21T20:32:00.219Z,20.60
2022-08-21T20:34:27.589Z,20.50
2022-08-21T20:36:54.936Z,20.50
2022-08-21T20:42:11.321Z,20.50
2022-08-21T20:44:46.771Z,20.40
2022-08-21T20:47:15.961Z,20.40
2022-08-21T20:49:48.886Z,20.40
2022-08-21T20:55:11.338Z,20.30
2022-08-21T20:58:03.327Z,20.30
2022-08-21T21:00:35.007Z,20.30
2022-08-21T21:03:07.396Z,20.30
2022-08-21T21:05:57.536Z,20.30
2022-08-21T21:08:37.356Z,20.30
2022-08-21T21:11:16.773Z,20.20
2022-08-21T21:14:02.513Z,20.20
2022-08-21T21:16:51.031Z,20.20
2022-08-21T21:19:28.129Z,20.10
2022-08-21T21:21:58.912Z,20.10
2022-08-21T21:24:35.738Z,20.10
2022-08-21T21:27:11.618Z,20.00
2022-08-21T21:29:52.283Z,20.00
2022-08-21T21:32:20.958Z,20.00
2022-08-21T21:34:51.115Z,20.00
2022-08-21T21:37:30.906Z,20.00
2022-08-21T21:40:16.404Z,20.10
2022-08-21T21:43:07.176Z,20.00
2022-08-21T21:46:16.040Z,20.00
2022-08-21T21:48:46.065Z,20.00
2022-08-21T21:51:59.644Z,20.00
2022-08-21T21:54:48.944Z,20.00
2022-08-21T21:57:43.173Z,20.00
2022-08-21T22:00:18.837Z,20.00
2022-08-21T22:02:55.127Z,20.00
2022-08-21T22:05:45.666Z,20.00
2022-08-21T22:08:31.665Z,20.00
2022-08-21T22:11:24.221Z,20.00
2022-08-21T22:14:09.282Z,19.90
2022-08-21T22:16:37.866Z,20.00
2022-08-21T22:19:25.170Z,19.90
2022-08-21T22:22:11.662Z,19.90
2022-08-21T22:24:44.846Z,19.90
2022-08-21T22:27:22.186Z,19.90
2022-08-21T22:29:58.706Z,19.90
2022-08-21T22:32:50.244Z,19.90
2022-08-21T22:35:37.014Z,19.90
2022-08-21T22:38:16.339Z,20.00
2022-08-21T22:40:44.147Z,20.00
2022-08-21T22:43:21.407Z,20.00
2022-08-21T22:46:08.294Z,20.00
2022-08-21T22:48:39.231Z,20.00
2022-08-21T22:51:35.506Z,20.00
2022-08-21T22:54:04.653Z,20.00
2022-08-21T22:56:59.905Z,20.00
2022-08-21T22:59:41.263Z,20.00
2022-08-21T23:02:26.694Z,20.00
2022-08-21T23:05:00.719Z,20.00
2022-08-21T23:07:34.735Z,19.90
2022-08-21T23:10:02.915Z,19.90
2022-08-21T23:12:36.383Z,19.90
2022-08-21T23:15:09.169Z,19.90
2022-08-21T23:17:49.847Z,19.90
2022-08-21T23:20:33.925Z,19.90
2022-08-21T23:23:27.431Z,19.90
2022-08-21T23:26:04.629Z,19.80
2022-08-21T23:28:32.023Z,19.80
2022-08-21T23:31:39.090Z,19.80
2022-08-21T23:34:33.049Z,19.80
2022-08-21T23:40:50.816Z,19.80
2022-08-21T23:44:08.213Z,19.80
2022-08-21T23:46:43.863Z,19.80
2022-08-21T23:49:54.601Z,19.80
2022-08-21T23:52:52.564Z,19.80
2022-08-21T23:58:43.681Z,19.80
